Terminal Aerodrome Forecast
Issued by NWS Louisville, KY

Home | Current Version | Previous Version | Text Only | Print | Product List | Glossary On
Versions: 1 2 3 4 5 6 7 8 9 10 11 12 13 14
951
FTUS43 KLMK 091123
TAFSDF
TAF
KSDF 091123Z 0912/1018 32009KT P6SM -SHSN OVC026
     FM091600 29007KT P6SM SCT030
     FM100200 30005KT P6SM BKN150=

USA.gov is the U.S. government's official web portal to all federal, state and local government web resources and services.